sensor_id;sensor_type;location;lat;lon;timestamp;pressure;altitude;pressure_sealevel;temperature;humidity
77192;BME280;66172;48.526;8.078;2023-03-16T00:01:19;99920.25;;;1.39;82.73
77192;BME280;66172;48.526;8.078;2023-03-16T00:03:45;99914.38;;;1.47;82.19
77192;BME280;66172;48.526;8.078;2023-03-16T00:06:11;99913.28;;;1.38;82.52
77192;BME280;66172;48.526;8.078;2023-03-16T00:08:37;99914.59;;;1.76;81.02
77192;BME280;66172;48.526;8.078;2023-03-16T00:11:04;99915.16;;;1.73;81.26
77192;BME280;66172;48.526;8.078;2023-03-16T00:13:30;99916.50;;;1.76;80.62
77192;BME280;66172;48.526;8.078;2023-03-16T00:15:59;99914.63;;;1.71;80.31
77192;BME280;66172;48.526;8.078;2023-03-16T00:18:27;99909.25;;;1.56;81.38
77192;BME280;66172;48.526;8.078;2023-03-16T00:20:55;99915.16;;;1.53;81.31
77192;BME280;66172;48.526;8.078;2023-03-16T00:23:23;99906.84;;;1.29;81.73
77192;BME280;66172;48.526;8.078;2023-03-16T00:25:54;99911.38;;;1.09;83.04
77192;BME280;66172;48.526;8.078;2023-03-16T00:28:21;99907.59;;;1.05;83.54
77192;BME280;66172;48.526;8.078;2023-03-16T00:30:48;99909.72;;;0.97;83.66
77192;BME280;66172;48.526;8.078;2023-03-16T00:33:15;99916.91;;;0.92;83.49
77192;BME280;66172;48.526;8.078;2023-03-16T00:35:45;99900.13;;;1.12;82.89
77192;BME280;66172;48.526;8.078;2023-03-16T00:38:18;99899.03;;;1.08;82.72
77192;BME280;66172;48.526;8.078;2023-03-16T00:40:45;99904.91;;;1.05;82.79
77192;BME280;66172;48.526;8.078;2023-03-16T00:43:12;99913.53;;;1.22;82.32
77192;BME280;66172;48.526;8.078;2023-03-16T00:45:43;99900.16;;;1.57;80.86
77192;BME280;66172;48.526;8.078;2023-03-16T00:48:10;99897.72;;;1.20;82.09
77192;BME280;66172;48.526;8.078;2023-03-16T00:50:37;99897.16;;;1.13;82.21
77192;BME280;66172;48.526;8.078;2023-03-16T00:53:03;99896.34;;;1.08;82.44
77192;BME280;66172;48.526;8.078;2023-03-16T00:55:28;99894.50;;;1.18;82.14
77192;BME280;66172;48.526;8.078;2023-03-16T00:57:54;99898.75;;;1.09;83.11
77192;BME280;66172;48.526;8.078;2023-03-16T01:00:20;99890.72;;;1.09;83.06
77192;BME280;66172;48.526;8.078;2023-03-16T01:02:47;99887.81;;;1.16;82.28
77192;BME280;66172;48.526;8.078;2023-03-16T01:05:13;99890.97;;;0.97;83.07
77192;BME280;66172;48.526;8.078;2023-03-16T01:07:40;99885.06;;;0.95;82.80
77192;BME280;66172;48.526;8.078;2023-03-16T01:10:07;99882.13;;;0.92;82.65
77192;BME280;66172;48.526;8.078;2023-03-16T01:12:34;99882.94;;;0.87;82.53
77192;BME280;66172;48.526;8.078;2023-03-16T01:15:00;99885.63;;;1.13;81.55
77192;BME280;66172;48.526;8.078;2023-03-16T01:17:26;99883.47;;;0.89;83.12
77192;BME280;66172;48.526;8.078;2023-03-16T01:19:52;99887.97;;;0.79;83.08
77192;BME280;66172;48.526;8.078;2023-03-16T01:22:18;99880.72;;;0.69;83.21
77192;BME280;66172;48.526;8.078;2023-03-16T01:24:44;99878.03;;;0.59;84.11
77192;BME280;66172;48.526;8.078;2023-03-16T01:27:11;99885.59;;;0.77;82.85
77192;BME280;66172;48.526;8.078;2023-03-16T01:29:37;99876.56;;;1.09;82.00
77192;BME280;66172;48.526;8.078;2023-03-16T01:32:05;99873.59;;;1.20;81.32
77192;BME280;66172;48.526;8.078;2023-03-16T01:34:33;99876.53;;;1.14;80.89
77192;BME280;66172;48.526;8.078;2023-03-16T01:36:59;99879.50;;;1.17;81.01
77192;BME280;66172;48.526;8.078;2023-03-16T01:39:25;99877.66;;;1.23;80.98
77192;BME280;66172;48.526;8.078;2023-03-16T01:41:51;99874.16;;;1.12;81.24
77192;BME280;66172;48.526;8.078;2023-03-16T01:44:23;99865.78;;;0.88;82.54
77192;BME280;66172;48.526;8.078;2023-03-16T01:46:52;99863.38;;;0.87;82.66
77192;BME280;66172;48.526;8.078;2023-03-16T01:49:23;99866.03;;;0.77;83.29
77192;BME280;66172;48.526;8.078;2023-03-16T01:52:05;99866.28;;;0.65;83.46
77192;BME280;66172;48.526;8.078;2023-03-16T01:54:35;99859.59;;;0.73;82.83
77192;BME280;66172;48.526;8.078;2023-03-16T01:59:45;99862.28;;;0.78;82.62
77192;BME280;66172;48.526;8.078;2023-03-16T02:02:14;99861.28;;;1.14;81.54
77192;BME280;66172;48.526;8.078;2023-03-16T02:04:53;99856.22;;;1.28;80.89
77192;BME280;66172;48.526;8.078;2023-03-16T02:07:23;99854.06;;;1.40;80.48
77192;BME280;66172;48.526;8.078;2023-03-16T02:09:52;99859.16;;;1.46;79.71
77192;BME280;66172;48.526;8.078;2023-03-16T02:12:21;99846.84;;;1.40;79.67
77192;BME280;66172;48.526;8.078;2023-03-16T02:14:48;99852.22;;;1.40;80.11
77192;BME280;66172;48.526;8.078;2023-03-16T02:17:16;99849.53;;;1.50;78.76
77192;BME280;66172;48.526;8.078;2023-03-16T02:19:57;99847.09;;;1.24;79.80
77192;BME280;66172;48.526;8.078;2023-03-16T02:22:26;99846.56;;;1.42;79.47
77192;BME280;66172;48.526;8.078;2023-03-16T02:24:53;99847.34;;;1.27;80.28
77192;BME280;66172;48.526;8.078;2023-03-16T02:27:36;99837.75;;;1.26;79.81
77192;BME280;66172;48.526;8.078;2023-03-16T02:30:08;99835.56;;;1.13;80.98
77192;BME280;66172;48.526;8.078;2023-03-16T02:32:36;99836.41;;;1.19;80.01
77192;BME280;66172;48.526;8.078;2023-03-16T02:35:03;99839.31;;;1.37;79.07
77192;BME280;66172;48.526;8.078;2023-03-16T02:37:30;99826.69;;;0.82;81.76
77192;BME280;66172;48.526;8.078;2023-03-16T02:39:59;99835.28;;;0.99;81.02
77192;BME280;66172;48.526;8.078;2023-03-16T02:42:27;99826.75;;;1.28;79.72
77192;BME280;66172;48.526;8.078;2023-03-16T02:44:58;99826.47;;;1.04;81.14
77192;BME280;66172;48.526;8.078;2023-03-16T02:47:30;99833.91;;;0.82;81.75
77192;BME280;66172;48.526;8.078;2023-03-16T02:49:58;99826.16;;;0.85;81.48
77192;BME280;66172;48.526;8.078;2023-03-16T02:52:24;99816.78;;;0.78;82.22
77192;BME280;66172;48.526;8.078;2023-03-16T02:54:50;99820.25;;;0.78;82.57
77192;BME280;66172;48.526;8.078;2023-03-16T02:57:16;99818.69;;;0.87;82.16
77192;BME280;66172;48.526;8.078;2023-03-16T02:59:41;99813.34;;;0.97;81.37
77192;BME280;66172;48.526;8.078;2023-03-16T03:02:07;99810.41;;;1.24;80.23
77192;BME280;66172;48.526;8.078;2023-03-16T03:04:33;99808.25;;;1.41;79.41
77192;BME280;66172;48.526;8.078;2023-03-16T03:06:59;99810.13;;;1.31;79.49
77192;BME280;66172;48.526;8.078;2023-03-16T03:09:30;99820.31;;;1.44;79.15
77192;BME280;66172;48.526;8.078;2023-03-16T03:11:59;99804.50;;;1.47;78.82
77192;BME280;66172;48.526;8.078;2023-03-16T03:14:26;99799.94;;;1.48;78.41
77192;BME280;66172;48.526;8.078;2023-03-16T03:16:53;99794.34;;;1.19;80.08
77192;BME280;66172;48.526;8.078;2023-03-16T03:19:19;99788.19;;;0.93;80.53
77192;BME280;66172;48.526;8.078;2023-03-16T03:21:45;99781.47;;;0.96;80.94
77192;BME280;66172;48.526;8.078;2023-03-16T03:24:11;99783.88;;;0.82;81.46
77192;BME280;66172;48.526;8.078;2023-03-16T03:26:37;99781.72;;;0.59;82.83
77192;BME280;66172;48.526;8.078;2023-03-16T03:29:03;99788.69;;;0.70;82.53
77192;BME280;66172;48.526;8.078;2023-03-16T03:31:29;99785.50;;;0.98;80.44
77192;BME280;66172;48.526;8.078;2023-03-16T03:33:55;99781.75;;;1.25;79.80
77192;BME280;66172;48.526;8.078;2023-03-16T03:36:21;99778.53;;;1.18;79.52
77192;BME280;66172;48.526;8.078;2023-03-16T03:38:46;99780.41;;;1.27;79.50
77192;BME280;66172;48.526;8.078;2023-03-16T03:41:14;99781.22;;;1.13;79.40
77192;BME280;66172;48.526;8.078;2023-03-16T03:43:40;99774.53;;;1.10;80.29
77192;BME280;66172;48.526;8.078;2023-03-16T03:46:06;99786.31;;;1.19;80.16
77192;BME280;66172;48.526;8.078;2023-03-16T03:48:32;99778.81;;;1.06;80.77
77192;BME280;66172;48.526;8.078;2023-03-16T03:50:58;99771.56;;;1.27;79.73
77192;BME280;66172;48.526;8.078;2023-03-16T03:53:24;99775.06;;;1.22;80.15
77192;BME280;66172;48.526;8.078;2023-03-16T03:55:50;99774.78;;;1.29;79.92
77192;BME280;66172;48.526;8.078;2023-03-16T03:58:16;99768.66;;;0.88;81.74
77192;BME280;66172;48.526;8.078;2023-03-16T04:00:42;99771.03;;;0.99;81.80
77192;BME280;66172;48.526;8.078;2023-03-16T04:03:08;99770.50;;;1.18;80.76
77192;BME280;66172;48.526;8.078;2023-03-16T04:05:34;99775.59;;;1.19;80.35
77192;BME280;66172;48.526;8.078;2023-03-16T04:07:59;99778.25;;;1.09;80.61
77192;BME280;66172;48.526;8.078;2023-03-16T04:10:27;99777.72;;;1.32;79.47
77192;BME280;66172;48.526;8.078;2023-03-16T04:12:57;99772.13;;;1.29;79.35
77192;BME280;66172;48.526;8.078;2023-03-16T04:15:24;99777.72;;;1.42;79.13
77192;BME280;66172;48.526;8.078;2023-03-16T04:17:50;99771.31;;;1.33;79.80
77192;BME280;66172;48.526;8.078;2023-03-16T04:20:17;99772.63;;;1.31;80.14
77192;BME280;66172;48.526;8.078;2023-03-16T04:22:45;99769.94;;;1.51;79.50
77192;BME280;66172;48.526;8.078;2023-03-16T04:25:13;99767.50;;;1.60;78.98
77192;BME280;66172;48.526;8.078;2023-03-16T04:27:40;99765.66;;;1.40;79.04
77192;BME280;66172;48.526;8.078;2023-03-16T04:30:10;99764.59;;;1.31;79.10
77192;BME280;66172;48.526;8.078;2023-03-16T04:32:36;99765.09;;;1.53;78.66
77192;BME280;66172;48.526;8.078;2023-03-16T04:35:03;99773.41;;;1.51;78.44
77192;BME280;66172;48.526;8.078;2023-03-16T04:37:29;99773.19;;;1.33;79.24
77192;BME280;66172;48.526;8.078;2023-03-16T04:39:55;99762.16;;;1.49;78.78
77192;BME280;66172;48.526;8.078;2023-03-16T04:42:21;99767.53;;;1.39;78.49
77192;BME280;66172;48.526;8.078;2023-03-16T04:44:47;99760.56;;;1.43;79.00
77192;BME280;66172;48.526;8.078;2023-03-16T04:47:15;99754.13;;;1.44;78.41
77192;BME280;66172;48.526;8.078;2023-03-16T04:49:41;99755.75;;;1.35;78.89
77192;BME280;66172;48.526;8.078;2023-03-16T04:52:08;99764.31;;;1.37;78.94
77192;BME280;66172;48.526;8.078;2023-03-16T04:54:34;99752.50;;;1.48;78.61
77192;BME280;66172;48.526;8.078;2023-03-16T04:57:00;99753.31;;;1.49;78.52
77192;BME280;66172;48.526;8.078;2023-03-16T04:59:28;99753.59;;;1.42;79.18
77192;BME280;66172;48.526;8.078;2023-03-16T05:01:54;99751.72;;;1.43;78.74
77192;BME280;66172;48.526;8.078;2023-03-16T05:04:20;99757.09;;;1.33;79.51
77192;BME280;66172;48.526;8.078;2023-03-16T05:06:46;99753.34;;;1.39;78.68
77192;BME280;66172;48.526;8.078;2023-03-16T05:09:12;99755.75;;;1.35;78.30
77192;BME280;66172;48.526;8.078;2023-03-16T05:11:38;99748.00;;;1.39;78.23
77192;BME280;66172;48.526;8.078;2023-03-16T05:14:05;99741.59;;;1.05;79.96
77192;BME280;66172;48.526;8.078;2023-03-16T05:16:31;99751.25;;;0.80;81.09
77192;BME280;66172;48.526;8.078;2023-03-16T05:18:58;99743.19;;;0.95;81.06
77192;BME280;66172;48.526;8.078;2023-03-16T05:21:24;99743.75;;;1.08;80.22
77192;BME280;66172;48.526;8.078;2023-03-16T05:23:50;99745.88;;;1.11;80.05
77192;BME280;66172;48.526;8.078;2023-03-16T05:26:17;99750.94;;;1.27;79.60
77192;BME280;66172;48.526;8.078;2023-03-16T05:28:44;99743.69;;;1.43;78.95
77192;BME280;66172;48.526;8.078;2023-03-16T05:31:10;99749.34;;;1.36;78.56
77192;BME280;66172;48.526;8.078;2023-03-16T05:33:36;99738.06;;;1.39;78.22
77192;BME280;66172;48.526;8.078;2023-03-16T05:36:03;99727.59;;;1.48;78.57
77192;BME280;66172;48.526;8.078;2023-03-16T05:38:29;99733.47;;;1.55;77.89
77192;BME280;66172;48.526;8.078;2023-03-16T05:40:57;99740.22;;;1.32;78.46
77192;BME280;66172;48.526;8.078;2023-03-16T05:43:26;99730.31;;;1.43;78.57
77192;BME280;66172;48.526;8.078;2023-03-16T05:45:56;99737.78;;;1.46;78.86
77192;BME280;66172;48.526;8.078;2023-03-16T05:48:22;99732.94;;;1.53;78.21
77192;BME280;66172;48.526;8.078;2023-03-16T05:50:51;99739.59;;;1.66;77.87
77192;BME280;66172;48.526;8.078;2023-03-16T05:53:17;99737.72;;;1.71;77.62
77192;BME280;66172;48.526;8.078;2023-03-16T05:55:43;99736.16;;;1.60;77.62
77192;BME280;66172;48.526;8.078;2023-03-16T05:58:09;99741.19;;;1.77;77.29
77192;BME280;66172;48.526;8.078;2023-03-16T06:00:36;99746.88;;;1.65;77.28
77192;BME280;66172;48.526;8.078;2023-03-16T06:03:04;99744.66;;;1.82;77.00
77192;BME280;66172;48.526;8.078;2023-03-16T06:05:30;99741.69;;;1.89;76.64
77192;BME280;66172;48.526;8.078;2023-03-16T06:07:56;99744.13;;;1.80;77.31
77192;BME280;66172;48.526;8.078;2023-03-16T06:10:22;99753.56;;;1.68;77.20
77192;BME280;66172;48.526;8.078;2023-03-16T06:12:48;99741.44;;;1.80;77.29
77192;BME280;66172;48.526;8.078;2023-03-16T06:15:14;99744.09;;;1.90;76.63
77192;BME280;66172;48.526;8.078;2023-03-16T06:17:40;99755.34;;;1.92;76.63
77192;BME280;66172;48.526;8.078;2023-03-16T06:20:08;99758.81;;;1.98;76.74
77192;BME280;66172;48.526;8.078;2023-03-16T06:22:40;99745.59;;;2.17;75.62
77192;BME280;66172;48.526;8.078;2023-03-16T06:25:07;99748.84;;;2.09;76.34
77192;BME280;66172;48.526;8.078;2023-03-16T06:27:35;99745.81;;;2.25;75.58
77192;BME280;66172;48.526;8.078;2023-03-16T06:30:01;99752.72;;;2.36;75.66
77192;BME280;66172;48.526;8.078;2023-03-16T06:32:27;99759.69;;;2.37;75.28
77192;BME280;66172;48.526;8.078;2023-03-16T06:34:53;99754.34;;;2.37;75.80
77192;BME280;66172;48.526;8.078;2023-03-16T06:37:19;99754.75;;;2.60;74.77
77192;BME280;66172;48.526;8.078;2023-03-16T06:39:45;99755.19;;;2.72;74.21
77192;BME280;66172;48.526;8.078;2023-03-16T06:42:10;99751.81;;;2.95;73.66
77192;BME280;66172;48.526;8.078;2023-03-16T06:44:36;99750.84;;;3.91;71.39
77192;BME280;66172;48.526;8.078;2023-03-16T06:47:02;99753.31;;;6.60;62.81
77192;BME280;66172;48.526;8.078;2023-03-16T06:49:29;99755.47;;;8.90;56.67
77192;BME280;66172;48.526;8.078;2023-03-16T06:51:55;99752.88;;;11.78;47.78
77192;BME280;66172;48.526;8.078;2023-03-16T06:54:23;99759.50;;;12.78;42.67
77192;BME280;66172;48.526;8.078;2023-03-16T06:56:49;99756.81;;;14.08;41.04
77192;BME280;66172;48.526;8.078;2023-03-16T06:59:15;99747.97;;;16.03;37.59
77192;BME280;66172;48.526;8.078;2023-03-16T07:01:41;99749.84;;;17.37;35.69
77192;BME280;66172;48.526;8.078;2023-03-16T07:04:09;99756.41;;;18.51;32.96
77192;BME280;66172;48.526;8.078;2023-03-16T07:06:34;99764.59;;;19.12;31.43
77192;BME280;66172;48.526;8.078;2023-03-16T07:09:00;99754.53;;;19.59;30.63
77192;BME280;66172;48.526;8.078;2023-03-16T07:11:26;99748.66;;;20.27;29.50
77192;BME280;66172;48.526;8.078;2023-03-16T07:13:52;99750.97;;;20.75;28.83
77192;BME280;66172;48.526;8.078;2023-03-16T07:16:18;99752.16;;;20.74;28.00
77192;BME280;66172;48.526;8.078;2023-03-16T07:18:44;99747.31;;;21.13;28.14
77192;BME280;66172;48.526;8.078;2023-03-16T07:21:10;99749.53;;;21.39;27.04
77192;BME280;66172;48.526;8.078;2023-03-16T07:23:36;99742.56;;;21.79;26.90
77192;BME280;66172;48.526;8.078;2023-03-16T07:26:02;99750.47;;;21.81;26.34
77192;BME280;66172;48.526;8.078;2023-03-16T07:28:28;99741.50;;;22.18;25.91
77192;BME280;66172;48.526;8.078;2023-03-16T07:30:54;99743.72;;;23.08;24.76
77192;BME280;66172;48.526;8.078;2023-03-16T07:33:20;99742.31;;;22.15;25.53
77192;BME280;66172;48.526;8.078;2023-03-16T07:35:46;99736.75;;;23.27;24.50
77192;BME280;66172;48.526;8.078;2023-03-16T07:38:12;99739.06;;;22.68;24.91
77192;BME280;66172;48.526;8.078;2023-03-16T07:40:40;99729.69;;;22.10;26.22
77192;BME280;66172;48.526;8.078;2023-03-16T07:43:06;99727.09;;;22.37;25.63
77192;BME280;66172;48.526;8.078;2023-03-16T07:45:32;99726.22;;;21.40;26.96
77192;BME280;66172;48.526;8.078;2023-03-16T07:47:58;99730.41;;;20.79;27.99
77192;BME280;66172;48.526;8.078;2023-03-16T07:50:24;99717.88;;;19.62;29.91
77192;BME280;66172;48.526;8.078;2023-03-16T07:52:50;99712.75;;;19.85;29.61
77192;BME280;66172;48.526;8.078;2023-03-16T07:55:16;99717.72;;;19.09;30.67
77192;BME280;66172;48.526;8.078;2023-03-16T07:57:42;99723.63;;;19.14;31.19
77192;BME280;66172;48.526;8.078;2023-03-16T08:00:13;99722.25;;;18.69;31.75
77192;BME280;66172;48.526;8.078;2023-03-16T08:02:39;99714.56;;;18.38;31.78
77192;BME280;66172;48.526;8.078;2023-03-16T08:05:05;99710.69;;;17.91;33.26
77192;BME280;66172;48.526;8.078;2023-03-16T08:07:31;99714.06;;;17.74;33.23
77192;BME280;66172;48.526;8.078;2023-03-16T08:09:57;99717.16;;;17.32;34.34
77192;BME280;66172;48.526;8.078;2023-03-16T08:12:22;99714.63;;;17.13;34.32
77192;BME280;66172;48.526;8.078;2023-03-16T08:14:48;99715.00;;;17.48;34.18
77192;BME280;66172;48.526;8.078;2023-03-16T08:17:14;99721.41;;;17.23;34.54
77192;BME280;66172;48.526;8.078;2023-03-16T08:19:40;99718.00;;;16.70;35.33
77192;BME280;66172;48.526;8.078;2023-03-16T08:22:07;99714.34;;;17.59;33.65
77192;BME280;66172;48.526;8.078;2023-03-16T08:24:33;99710.31;;;17.93;33.00
77192;BME280;66172;48.526;8.078;2023-03-16T08:26:59;99709.69;;;17.70;33.82
77192;BME280;66172;48.526;8.078;2023-03-16T08:29:25;99711.88;;;17.54;34.06
77192;BME280;66172;48.526;8.078;2023-03-16T08:31:52;99694.13;;;17.44;34.97
77192;BME280;66172;48.526;8.078;2023-03-16T08:34:19;99704.38;;;17.91;33.59
77192;BME280;66172;48.526;8.078;2023-03-16T08:36:45;99717.56;;;17.68;34.26
77192;BME280;66172;48.526;8.078;2023-03-16T08:39:11;99731.84;;;18.31;33.90
77192;BME280;66172;48.526;8.078;2023-03-16T08:41:37;99726.25;;;18.21;33.54
77192;BME280;66172;48.526;8.078;2023-03-16T08:44:05;99730.31;;;17.86;34.10
77192;BME280;66172;48.526;8.078;2023-03-16T08:46:32;99724.75;;;17.79;34.40
77192;BME280;66172;48.526;8.078;2023-03-16T08:48:59;99730.09;;;17.62;34.52
77192;BME280;66172;48.526;8.078;2023-03-16T08:51:24;99727.13;;;18.32;34.00
77192;BME280;66172;48.526;8.078;2023-03-16T08:53:51;99719.66;;;17.85;34.46
77192;BME280;66172;48.526;8.078;2023-03-16T08:56:17;99730.69;;;19.05;32.73
77192;BME280;66172;48.526;8.078;2023-03-16T08:58:43;99736.81;;;18.70;33.45
77192;BME280;66172;48.526;8.078;2023-03-16T09:01:12;99723.59;;;17.84;33.63
77192;BME280;66172;48.526;8.078;2023-03-16T09:03:39;99713.72;;;18.30;34.09
77192;BME280;66172;48.526;8.078;2023-03-16T09:06:12;99708.56;;;18.87;32.77
77192;BME280;66172;48.526;8.078;2023-03-16T09:08:39;99703.38;;;18.71;31.83
77192;BME280;66172;48.526;8.078;2023-03-16T09:11:08;99694.09;;;19.22;32.13
77192;BME280;66172;48.526;8.078;2023-03-16T09:13:36;99673.28;;;19.38;31.22
77192;BME280;66172;48.526;8.078;2023-03-16T09:16:03;99683.88;;;19.22;32.04
77192;BME280;66172;48.526;8.078;2023-03-16T09:18:31;99663.84;;;19.82;31.52
77192;BME280;66172;48.526;8.078;2023-03-16T09:20:58;99670.53;;;20.06;31.70
77192;BME280;66172;48.526;8.078;2023-03-16T09:23:25;99672.88;;;20.46;30.41
77192;BME280;66172;48.526;8.078;2023-03-16T09:25:52;99676.00;;;20.52;30.14
77192;BME280;66172;48.526;8.078;2023-03-16T09:28:21;99680.75;;;20.51;30.38
77192;BME280;66172;48.526;8.078;2023-03-16T09:30:47;99681.41;;;20.87;29.67
77192;BME280;66172;48.526;8.078;2023-03-16T09:33:14;99674.47;;;20.22;30.69
77192;BME280;66172;48.526;8.078;2023-03-16T09:35:40;99661.50;;;19.59;30.95
77192;BME280;66172;48.526;8.078;2023-03-16T09:38:07;99666.53;;;19.29;31.80
77192;BME280;66172;48.526;8.078;2023-03-16T09:40:34;99674.06;;;20.20;31.06
77192;BME280;66172;48.526;8.078;2023-03-16T09:43:19;99663.03;;;20.20;31.45
77192;BME280;66172;48.526;8.078;2023-03-16T09:46:08;99664.91;;;21.46;29.65
77192;BME280;66172;48.526;8.078;2023-03-16T09:48:37;99663.53;;;21.71;29.79
77192;BME280;66172;48.526;8.078;2023-03-16T09:51:07;99665.00;;;20.34;31.02
77192;BME280;66172;48.526;8.078;2023-03-16T09:53:36;99667.72;;;21.42;29.31
77192;BME280;66172;48.526;8.078;2023-03-16T09:56:17;99669.72;;;21.38;29.63
77192;BME280;66172;48.526;8.078;2023-03-16T09:58:45;99668.28;;;21.05;29.57
77192;BME280;66172;48.526;8.078;2023-03-16T10:01:33;99674.59;;;21.09;30.24
77192;BME280;66172;48.526;8.078;2023-03-16T10:06:47;99664.38;;;21.65;29.72
77192;BME280;66172;48.526;8.078;2023-03-16T10:09:25;99656.88;;;22.10;28.50
77192;BME280;66172;48.526;8.078;2023-03-16T10:11:55;99663.00;;;22.31;28.07
77192;BME280;66172;48.526;8.078;2023-03-16T10:14:32;99651.47;;;22.36;28.18
77192;BME280;66172;48.526;8.078;2023-03-16T10:17:10;99647.31;;;22.18;28.81
77192;BME280;66172;48.526;8.078;2023-03-16T10:19:42;99649.81;;;22.42;27.35
77192;BME280;66172;48.526;8.078;2023-03-16T10:22:19;99651.34;;;22.10;28.77
77192;BME280;66172;48.526;8.078;2023-03-16T10:27:29;99646.59;;;22.10;28.81
77192;BME280;66172;48.526;8.078;2023-03-16T10:29:55;99643.78;;;22.51;28.31
77192;BME280;66172;48.526;8.078;2023-03-16T10:32:22;99651.38;;;22.44;28.00
77192;BME280;66172;48.526;8.078;2023-03-16T10:37:56;99635.72;;;22.94;27.60
77192;BME280;66172;48.526;8.078;2023-03-16T10:40:23;99634.22;;;24.16;25.67
77192;BME280;66172;48.526;8.078;2023-03-16T10:42:49;99632.84;;;24.48;25.20
77192;BME280;66172;48.526;8.078;2023-03-16T10:45:34;99634.84;;;23.81;25.59
77192;BME280;66172;48.526;8.078;2023-03-16T10:48:16;99624.69;;;23.94;25.17
77192;BME280;66172;48.526;8.078;2023-03-16T10:50:48;99623.94;;;23.90;25.36
77192;BME280;66172;48.526;8.078;2023-03-16T10:53:27;99614.69;;;24.79;24.79
77192;BME280;66172;48.526;8.078;2023-03-16T10:55:58;99614.03;;;25.27;23.80
77192;BME280;66172;48.526;8.078;2023-03-16T10:58:29;99612.28;;;24.22;25.33
77192;BME280;66172;48.526;8.078;2023-03-16T11:00:55;99621.06;;;24.20;25.28
77192;BME280;66172;48.526;8.078;2023-03-16T11:03:29;99613.19;;;24.15;25.36
77192;BME280;66172;48.526;8.078;2023-03-16T11:05:58;99610.06;;;24.13;25.68
77192;BME280;66172;48.526;8.078;2023-03-16T11:08:26;99616.84;;;24.91;24.66
77192;BME280;66172;48.526;8.078;2023-03-16T11:10:55;99623.56;;;24.54;25.54
77192;BME280;66172;48.526;8.078;2023-03-16T11:13:30;99626.47;;;24.04;25.93
77192;BME280;66172;48.526;8.078;2023-03-16T11:16:22;99623.34;;;23.79;26.56
77192;BME280;66172;48.526;8.078;2023-03-16T11:18:53;99623.09;;;22.25;28.22
77192;BME280;66172;48.526;8.078;2023-03-16T11:21:37;99620.41;;;20.39;31.18
77192;BME280;66172;48.526;8.078;2023-03-16T11:24:16;99606.63;;;20.18;31.37
77192;BME280;66172;48.526;8.078;2023-03-16T11:26:47;99604.28;;;20.06;31.65
77192;BME280;66172;48.526;8.078;2023-03-16T11:29:27;99596.84;;;19.74;32.26
77192;BME280;66172;48.526;8.078;2023-03-16T11:32:00;99593.41;;;20.75;30.79
77192;BME280;66172;48.526;8.078;2023-03-16T11:34:30;99597.28;;;20.88;31.13
77192;BME280;66172;48.526;8.078;2023-03-16T11:37:09;99595.13;;;21.68;29.30
77192;BME280;66172;48.526;8.078;2023-03-16T11:43:25;99595.75;;;22.61;28.88
77192;BME280;66172;48.526;8.078;2023-03-16T11:46:06;99594.25;;;22.83;28.27
77192;BME280;66172;48.526;8.078;2023-03-16T11:48:47;99587.75;;;21.55;30.45
77192;BME280;66172;48.526;8.078;2023-03-16T11:54:34;99584.16;;;22.02;28.74
77192;BME280;66172;48.526;8.078;2023-03-16T11:59:56;99583.28;;;22.76;27.67
77192;BME280;66172;48.526;8.078;2023-03-16T12:02:39;99572.06;;;21.82;28.95
77192;BME280;66172;48.526;8.078;2023-03-16T12:10:56;99561.31;;;21.47;30.65
77192;BME280;66172;48.526;8.078;2023-03-16T12:16:03;99554.31;;;22.17;29.53
77192;BME280;66172;48.526;8.078;2023-03-16T12:18:38;99547.50;;;20.91;31.55
77192;BME280;66172;48.526;8.078;2023-03-16T12:21:21;99542.56;;;20.62;30.98
77192;BME280;66172;48.526;8.078;2023-03-16T12:23:51;99544.56;;;21.20;31.26
77192;BME280;66172;48.526;8.078;2023-03-16T12:26:20;99534.72;;;21.60;29.37
77192;BME280;66172;48.526;8.078;2023-03-16T12:28:49;99534.13;;;21.38;30.36
77192;BME280;66172;48.526;8.078;2023-03-16T12:31:21;99537.19;;;20.23;31.04
77192;BME280;66172;48.526;8.078;2023-03-16T12:44:56;99518.44;;;19.54;33.44
77192;BME280;66172;48.526;8.078;2023-03-16T12:47:42;99510.91;;;19.69;32.51
77192;BME280;66172;48.526;8.078;2023-03-16T12:50:13;99514.88;;;19.22;32.73
77192;BME280;66172;48.526;8.078;2023-03-16T12:52:48;99507.41;;;19.58;32.10
77192;BME280;66172;48.526;8.078;2023-03-16T12:55:17;99510.88;;;19.86;32.46
77192;BME280;66172;48.526;8.078;2023-03-16T12:57:46;99508.56;;;19.64;32.69
77192;BME280;66172;48.526;8.078;2023-03-16T13:00:13;99503.47;;;19.23;34.71
77192;BME280;66172;48.526;8.078;2023-03-16T13:02:48;99497.97;;;19.23;33.78
77192;BME280;66172;48.526;8.078;2023-03-16T13:05:17;99494.34;;;18.52;33.81
77192;BME280;66172;48.526;8.078;2023-03-16T13:08:07;99499.41;;;18.39;34.88
77192;BME280;66172;48.526;8.078;2023-03-16T13:10:35;99501.38;;;18.46;35.17
77192;BME280;66172;48.526;8.078;2023-03-16T13:13:16;99501.38;;;18.35;34.78
77192;BME280;66172;48.526;8.078;2023-03-16T13:15:44;99501.78;;;18.48;34.92
77192;BME280;66172;48.526;8.078;2023-03-16T13:25:56;99485.44;;;17.83;35.57
77192;BME280;66172;48.526;8.078;2023-03-16T13:28:35;99478.78;;;17.94;36.63
77192;BME280;66172;48.526;8.078;2023-03-16T13:31:02;99478.88;;;18.19;35.93
77192;BME280;66172;48.526;8.078;2023-03-16T13:33:31;99475.50;;;17.68;36.60
77192;BME280;66172;48.526;8.078;2023-03-16T13:36:02;99464.38;;;17.46;36.18
77192;BME280;66172;48.526;8.078;2023-03-16T13:38:29;99452.06;;;17.98;34.90
77192;BME280;66172;48.526;8.078;2023-03-16T13:41:01;99451.00;;;18.35;34.85
77192;BME280;66172;48.526;8.078;2023-03-16T13:43:29;99448.88;;;17.86;35.89
77192;BME280;66172;48.526;8.078;2023-03-16T13:45:57;99452.66;;;17.57;35.33
77192;BME280;66172;48.526;8.078;2023-03-16T13:48:24;99449.97;;;17.67;35.59
77192;BME280;66172;48.526;8.078;2023-03-16T13:50:51;99437.16;;;18.00;35.17
77192;BME280;66172;48.526;8.078;2023-03-16T13:53:29;99426.53;;;18.05;34.93
77192;BME280;66172;48.526;8.078;2023-03-16T13:55:56;99415.59;;;18.40;34.57
77192;BME280;66172;48.526;8.078;2023-03-16T13:58:28;99410.00;;;17.94;34.90
77192;BME280;66172;48.526;8.078;2023-03-16T14:01:00;99412.00;;;18.01;34.78